createdAt,value
2018-05-03T00:01:45.509Z,12.80
2018-05-03T00:04:13.738Z,12.70
2018-05-03T00:06:41.198Z,12.70
2018-05-03T00:09:08.670Z,12.70
2018-05-03T00:11:36.207Z,12.70
2018-05-03T00:14:03.693Z,12.70
2018-05-03T00:16:31.165Z,12.70
2018-05-03T00:18:58.634Z,12.70
2018-05-03T00:21:26.077Z,12.70
2018-05-03T00:23:53.526Z,12.70
2018-05-03T00:26:21.100Z,12.70
2018-05-03T00:28:48.537Z,12.70
2018-05-03T00:31:16.130Z,12.70
2018-05-03T00:33:43.578Z,12.70
2018-05-03T00:36:11.060Z,12.70
2018-05-03T00:38:38.621Z,12.70
2018-05-03T00:41:06.120Z,12.70
2018-05-03T00:43:33.653Z,12.70
2018-05-03T00:46:01.129Z,12.70
2018-05-03T00:48:28.674Z,12.70
2018-05-03T00:50:56.157Z,12.70
2018-05-03T00:53:23.615Z,12.70
2018-05-03T00:55:51.069Z,12.70
2018-05-03T00:58:18.532Z,12.70
2018-05-03T01:00:45.973Z,12.70
2018-05-03T01:03:13.444Z,12.70
2018-05-03T01:05:40.882Z,12.60
2018-05-03T01:08:08.394Z,12.70
2018-05-03T01:10:35.857Z,12.70
2018-05-03T01:13:03.296Z,12.70
2018-05-03T01:15:30.753Z,12.60
2018-05-03T01:17:58.215Z,12.70
2018-05-03T01:20:25.689Z,12.70
2018-05-03T01:22:53.146Z,12.70
2018-05-03T01:25:21.349Z,12.70
2018-05-03T01:27:48.894Z,12.70
2018-05-03T01:30:16.359Z,12.70
2018-05-03T01:32:43.854Z,12.60
2018-05-03T01:35:23.331Z,12.70
2018-05-03T01:37:50.773Z,12.70
2018-05-03T01:40:19.000Z,12.70
2018-05-03T01:42:46.457Z,12.60
2018-05-03T01:45:13.898Z,12.60
2018-05-03T01:47:41.366Z,12.60
2018-05-03T01:50:08.813Z,12.60
2018-05-03T01:52:36.317Z,12.70
2018-05-03T01:55:03.781Z,12.60
2018-05-03T01:57:31.339Z,12.70
2018-05-03T01:59:58.794Z,12.60
2018-05-03T02:02:26.383Z,12.70
2018-05-03T02:04:53.825Z,12.60
2018-05-03T02:07:21.271Z,12.60
2018-05-03T02:09:48.729Z,12.60
2018-05-03T02:12:16.182Z,12.60
2018-05-03T02:14:44.397Z,12.50
2018-05-03T02:17:11.858Z,12.50
2018-05-03T02:19:39.298Z,12.50
2018-05-03T02:22:06.742Z,12.50
2018-05-03T02:24:34.195Z,12.50
2018-05-03T02:27:02.415Z,12.40
2018-05-03T02:29:29.912Z,12.40
2018-05-03T02:31:58.174Z,12.40
2018-05-03T02:34:25.640Z,12.40
2018-05-03T02:36:53.106Z,12.40
2018-05-03T02:39:20.842Z,12.40
2018-05-03T02:41:48.342Z,12.40
2018-05-03T02:44:15.786Z,12.40
2018-05-03T02:46:43.243Z,12.40
2018-05-03T02:49:10.701Z,12.40
2018-05-03T02:51:38.158Z,12.40
2018-05-03T02:54:05.782Z,12.40
2018-05-03T02:56:34.029Z,12.40
2018-05-03T02:59:13.539Z,12.30
2018-05-03T03:01:56.433Z,12.40
2018-05-03T03:04:41.533Z,12.40
2018-05-03T03:10:35.194Z,12.40
2018-05-03T03:13:28.088Z,12.40
2018-05-03T03:16:13.345Z,12.40
2018-05-03T03:18:58.461Z,12.40
2018-05-03T03:21:57.151Z,12.30
2018-05-03T03:24:38.281Z,12.30
2018-05-03T03:27:24.174Z,12.30
2018-05-03T03:30:03.663Z,12.20
2018-05-03T03:32:42.940Z,12.30
2018-05-03T03:38:34.476Z,12.30
2018-05-03T03:41:13.709Z,12.30
2018-05-03T03:43:53.045Z,12.20
2018-05-03T03:46:20.543Z,12.30
2018-05-03T03:48:48.041Z,12.20
2018-05-03T03:51:15.593Z,12.20
2018-05-03T03:53:43.052Z,12.20
2018-05-03T03:56:10.605Z,12.20
2018-05-03T03:58:38.045Z,12.30
2018-05-03T04:01:05.517Z,12.30
2018-05-03T04:03:32.957Z,12.30
2018-05-03T04:06:00.424Z,12.30
2018-05-03T04:08:27.948Z,12.30
2018-05-03T04:10:55.411Z,12.30
2018-05-03T04:13:23.605Z,12.30
2018-05-03T04:15:51.062Z,12.30
2018-05-03T04:18:30.629Z,12.30
2018-05-03T04:21:10.065Z,12.20
2018-05-03T04:23:49.580Z,12.20
2018-05-03T04:26:16.957Z,12.20
2018-05-03T04:28:44.398Z,12.10
2018-05-03T04:31:11.861Z,12.10
2018-05-03T04:33:39.314Z,12.20
2018-05-03T04:36:07.626Z,12.20
2018-05-03T04:38:35.203Z,12.20
2018-05-03T04:41:02.667Z,12.20
2018-05-03T04:43:30.113Z,12.10
2018-05-03T04:45:57.578Z,12.20
2018-05-03T04:48:25.024Z,12.20
2018-05-03T04:50:52.487Z,12.10
2018-05-03T04:53:19.949Z,12.20
2018-05-03T04:55:47.537Z,12.30
2018-05-03T04:58:14.981Z,12.30
2018-05-03T05:00:42.447Z,12.30
2018-05-03T05:03:09.902Z,12.40
2018-05-03T05:05:37.363Z,12.40
2018-05-03T05:08:04.805Z,12.40
2018-05-03T05:10:33.039Z,12.40
2018-05-03T05:13:00.468Z,12.40
2018-05-03T05:15:27.908Z,12.50
2018-05-03T05:17:56.233Z,12.50
2018-05-03T05:20:23.613Z,12.50
2018-05-03T05:22:51.059Z,12.50
2018-05-03T05:25:18.625Z,12.50
2018-05-03T05:27:46.064Z,12.60
2018-05-03T05:30:13.663Z,12.60
2018-05-03T05:32:41.090Z,12.60
2018-05-03T05:35:08.536Z,12.70
2018-05-03T05:37:36.036Z,12.60
2018-05-03T05:40:03.477Z,12.60
2018-05-03T05:42:30.946Z,12.70
2018-05-03T05:44:58.424Z,12.70
2018-05-03T05:47:25.881Z,12.70
2018-05-03T05:49:53.342Z,12.80
2018-05-03T05:52:20.787Z,12.80
2018-05-03T05:54:48.232Z,12.80
2018-05-03T05:57:16.463Z,12.80
2018-05-03T05:59:43.925Z,12.70
2018-05-03T06:02:11.481Z,12.80
2018-05-03T06:04:38.946Z,12.80
2018-05-03T06:07:06.484Z,12.80
2018-05-03T06:09:33.947Z,12.80
2018-05-03T06:12:01.449Z,12.80
2018-05-03T06:14:28.920Z,12.90
2018-05-03T06:16:56.373Z,12.90
2018-05-03T06:19:23.842Z,12.90
2018-05-03T06:21:51.301Z,12.90
2018-05-03T06:24:18.787Z,12.90
2018-05-03T06:26:46.239Z,13.00
2018-05-03T06:29:13.883Z,13.00
2018-05-03T06:31:41.317Z,13.00
2018-05-03T06:34:08.798Z,13.10
2018-05-03T06:36:36.259Z,13.10
2018-05-03T06:39:03.689Z,13.20
2018-05-03T06:41:31.149Z,13.10
2018-05-03T06:43:59.360Z,13.10
2018-05-03T06:46:26.826Z,13.10
2018-05-03T06:48:54.280Z,13.20
2018-05-03T06:51:21.742Z,13.20
2018-05-03T06:53:49.191Z,13.20
2018-05-03T06:56:16.631Z,13.30
2018-05-03T06:58:44.888Z,13.30
2018-05-03T07:01:12.333Z,13.20
2018-05-03T07:03:39.887Z,13.30
2018-05-03T07:06:07.357Z,13.40
2018-05-03T07:08:34.805Z,13.40
2018-05-03T07:11:02.275Z,13.50
2018-05-03T07:13:29.729Z,13.60
2018-05-03T07:15:57.299Z,13.50
2018-05-03T07:18:24.831Z,13.60
2018-05-03T07:20:52.278Z,13.60
2018-05-03T07:23:20.509Z,13.50
2018-05-03T07:25:48.048Z,13.50
2018-05-03T07:28:15.480Z,13.50
2018-05-03T07:30:43.702Z,13.50
2018-05-03T07:33:11.157Z,13.50
2018-05-03T07:35:38.601Z,13.50
2018-05-03T07:38:06.075Z,13.50
2018-05-03T07:40:33.924Z,13.50
2018-05-03T07:43:02.149Z,13.60
2018-05-03T07:45:29.597Z,13.60
2018-05-03T07:47:57.022Z,13.70
2018-05-03T07:50:25.244Z,13.70
2018-05-03T07:52:52.701Z,13.70
2018-05-03T07:55:20.150Z,13.70
2018-05-03T07:57:47.605Z,13.80
2018-05-03T08:00:15.053Z,13.90
2018-05-03T08:02:43.308Z,13.80
2018-05-03T08:05:10.755Z,13.80
2018-05-03T08:07:38.197Z,13.80
2018-05-03T08:10:05.645Z,13.80
2018-05-03T08:12:33.158Z,13.80
2018-05-03T08:15:00.589Z,13.80
2018-05-03T08:17:28.152Z,13.80
2018-05-03T08:19:55.717Z,13.80
2018-05-03T08:22:23.181Z,13.90
2018-05-03T08:24:50.728Z,13.90
2018-05-03T08:27:18.172Z,13.90
2018-05-03T08:29:46.378Z,13.90
2018-05-03T08:32:13.857Z,13.90
2018-05-03T08:34:41.303Z,14.00
2018-05-03T08:37:08.757Z,14.00
2018-05-03T08:39:36.241Z,14.10
2018-05-03T08:42:03.702Z,14.10
2018-05-03T08:44:31.165Z,14.10
2018-05-03T08:46:58.633Z,14.10
2018-05-03T08:49:26.195Z,14.20
2018-05-03T08:51:53.737Z,14.10
2018-05-03T08:54:21.179Z,14.20
2018-05-03T08:56:49.393Z,14.20
2018-05-03T08:59:16.841Z,14.20
2018-05-03T09:01:44.328Z,14.20
2018-05-03T09:04:11.781Z,14.30
2018-05-03T09:06:39.218Z,14.30
2018-05-03T09:09:06.676Z,14.30
2018-05-03T09:11:34.878Z,14.30
2018-05-03T09:14:02.339Z,14.30
2018-05-03T09:16:29.822Z,14.30
2018-05-03T09:18:57.267Z,14.20
2018-05-03T09:21:24.712Z,14.30
2018-05-03T09:23:52.179Z,14.30
2018-05-03T09:26:19.616Z,14.30
2018-05-03T09:28:47.825Z,14.40
2018-05-03T09:31:15.284Z,14.30
2018-05-03T09:33:42.729Z,14.40
2018-05-03T09:36:10.928Z,14.60
2018-05-03T09:38:38.386Z,14.60
2018-05-03T09:41:05.845Z,14.70
2018-05-03T09:43:33.283Z,14.70
2018-05-03T09:46:01.515Z,14.80
2018-05-03T09:48:29.162Z,14.70
2018-05-03T09:50:56.586Z,14.80
2018-05-03T09:53:24.817Z,14.90
2018-05-03T09:55:52.261Z,14.80
2018-05-03T09:58:19.695Z,14.80
2018-05-03T10:00:48.028Z,14.90
2018-05-03T10:03:15.468Z,14.80
2018-05-03T10:05:43.034Z,14.90
2018-05-03T10:08:10.533Z,14.90
2018-05-03T10:10:37.959Z,15.00
2018-05-03T10:13:05.441Z,15.00
2018-05-03T10:15:32.907Z,14.80
2018-05-03T10:18:00.354Z,14.80
2018-05-03T10:20:27.804Z,14.80
2018-05-03T10:22:55.270Z,14.80
2018-05-03T10:25:22.713Z,14.80
2018-05-03T10:27:50.913Z,14.90
2018-05-03T10:30:18.396Z,14.80
2018-05-03T10:32:45.941Z,14.90
2018-05-03T10:35:13.397Z,14.90
2018-05-03T10:37:40.863Z,15.00
2018-05-03T10:40:08.297Z,15.00
2018-05-03T10:42:36.630Z,15.00
2018-05-03T10:45:04.072Z,15.00
2018-05-03T10:47:31.533Z,15.00
2018-05-03T10:49:58.969Z,14.90
2018-05-03T10:52:27.302Z,14.80
2018-05-03T10:54:54.749Z,14.80
2018-05-03T10:57:22.307Z,14.90
2018-05-03T10:59:49.773Z,15.00
2018-05-03T11:02:17.201Z,15.00
2018-05-03T11:04:45.428Z,15.10
2018-05-03T11:07:12.869Z,15.10
2018-05-03T11:09:40.309Z,15.20
2018-05-03T11:12:08.637Z,15.20
2018-05-03T11:14:36.077Z,15.20
2018-05-03T11:17:03.527Z,15.20
2018-05-03T11:19:30.999Z,15.20
2018-05-03T11:21:59.217Z,15.20
2018-05-03T11:24:26.653Z,15.20
2018-05-03T11:26:54.124Z,15.20
2018-05-03T11:29:21.561Z,15.30
2018-05-03T11:31:48.997Z,15.40
2018-05-03T11:34:17.233Z,15.50
2018-05-03T11:36:44.734Z,15.50
2018-05-03T11:39:12.165Z,15.60
2018-05-03T11:41:39.629Z,15.70
2018-05-03T11:44:07.073Z,15.80
2018-05-03T11:46:34.522Z,15.90
2018-05-03T11:49:01.973Z,15.90
2018-05-03T11:51:29.428Z,16.00
2018-05-03T11:53:57.658Z,16.20
2018-05-03T11:56:25.117Z,16.10
2018-05-03T11:58:52.570Z,16.10
2018-05-03T12:01:20.036Z,16.20
2018-05-03T12:03:47.473Z,16.20
2018-05-03T12:06:14.917Z,16.30
2018-05-03T12:08:43.345Z,16.50
2018-05-03T12:11:10.907Z,16.50
2018-05-03T12:13:38.420Z,16.60
2018-05-03T12:16:06.649Z,16.60
2018-05-03T12:18:34.120Z,16.60
2018-05-03T12:21:01.582Z,16.60
2018-05-03T12:23:29.221Z,16.60
2018-05-03T12:25:56.644Z,16.60
2018-05-03T12:28:24.886Z,16.60
2018-05-03T12:30:52.326Z,16.60
2018-05-03T12:33:19.905Z,16.70
2018-05-03T12:35:47.367Z,16.60
2018-05-03T12:38:14.837Z,16.70
2018-05-03T12:40:42.274Z,16.60
2018-05-03T12:43:09.756Z,16.60
2018-05-03T12:45:37.250Z,16.60
2018-05-03T12:48:04.785Z,16.60
2018-05-03T12:50:32.241Z,16.50
2018-05-03T12:52:59.696Z,16.50
2018-05-03T12:55:27.134Z,16.50
2018-05-03T12:57:55.353Z,16.60
2018-05-03T13:00:22.792Z,16.60
2018-05-03T13:02:50.283Z,16.70
2018-05-03T13:05:17.719Z,16.70
2018-05-03T13:07:45.202Z,16.70
2018-05-03T13:10:12.768Z,16.70
2018-05-03T13:12:40.220Z,16.80
2018-05-03T13:15:07.679Z,16.70
2018-05-03T13:17:35.114Z,16.70
2018-05-03T13:20:03.372Z,16.70
2018-05-03T13:22:30.778Z,16.70
2018-05-03T13:24:58.264Z,16.80
2018-05-03T13:27:25.729Z,16.90
2018-05-03T13:29:53.181Z,16.90
2018-05-03T13:32:20.749Z,16.90
2018-05-03T13:34:48.212Z,16.80
2018-05-03T13:37:15.661Z,16.80
2018-05-03T13:39:43.110Z,16.90
2018-05-03T13:42:10.571Z,16.80
2018-05-03T13:44:38.010Z,16.90
2018-05-03T13:47:06.239Z,17.00
2018-05-03T13:49:33.665Z,17.00
2018-05-03T13:52:01.157Z,17.00
2018-05-03T13:54:28.602Z,17.10
2018-05-03T13:56:56.085Z,17.10
2018-05-03T13:59:23.545Z,17.20
2018-05-03T14:01:51.020Z,17.30
2018-05-03T14:04:18.473Z,17.30
2018-05-03T14:06:45.942Z,17.40
2018-05-03T14:09:13.512Z,17.30
2018-05-03T14:11:40.973Z,17.40
2018-05-03T14:14:08.415Z,17.50
2018-05-03T14:16:35.877Z,17.60
2018-05-03T14:19:03.311Z,17.60
2018-05-03T14:21:31.614Z,17.70
2018-05-03T14:23:59.064Z,17.60
2018-05-03T14:26:26.517Z,17.60
2018-05-03T14:28:54.746Z,17.60
2018-05-03T14:31:22.204Z,17.50
2018-05-03T14:33:49.665Z,17.60
2018-05-03T14:36:17.228Z,17.70
2018-05-03T14:38:44.672Z,17.70
2018-05-03T14:41:12.138Z,17.70
2018-05-03T14:43:39.571Z,17.80
2018-05-03T14:46:07.898Z,17.80
2018-05-03T14:48:35.351Z,17.70
2018-05-03T14:51:02.813Z,17.80
2018-05-03T14:53:30.259Z,17.80
2018-05-03T14:55:57.718Z,17.80
2018-05-03T14:58:25.217Z,17.90
2018-05-03T15:00:52.774Z,17.90
2018-05-03T15:03:20.211Z,18.00
2018-05-03T15:05:47.664Z,18.00
2018-05-03T15:08:15.129Z,18.00
2018-05-03T15:10:42.594Z,18.00
2018-05-03T15:13:10.038Z,18.00
2018-05-03T15:15:38.257Z,17.90
2018-05-03T15:18:05.729Z,17.90
2018-05-03T15:20:33.294Z,17.80
2018-05-03T15:23:00.738Z,17.80
2018-05-03T15:25:28.176Z,17.80
2018-05-03T15:27:56.510Z,17.60
2018-05-03T15:30:23.955Z,17.60
2018-05-03T15:32:52.461Z,17.60
2018-05-03T15:35:19.905Z,17.50
2018-05-03T15:37:47.455Z,17.50
2018-05-03T15:40:14.877Z,17.40
2018-05-03T15:42:42.313Z,17.40
2018-05-03T15:45:09.785Z,17.40
2018-05-03T15:47:37.226Z,17.40
2018-05-03T15:50:04.664Z,17.40
2018-05-03T15:52:32.154Z,17.40
2018-05-03T15:54:59.586Z,17.40
2018-05-03T15:57:27.073Z,17.40
2018-05-03T15:59:54.535Z,17.40
2018-05-03T16:02:21.985Z,17.40
2018-05-03T16:04:49.981Z,17.30
2018-05-03T16:07:17.433Z,17.30
2018-05-03T16:09:44.911Z,17.40
2018-05-03T16:12:12.361Z,17.30
2018-05-03T16:14:39.793Z,17.30
2018-05-03T16:17:07.298Z,17.40
2018-05-03T16:19:34.758Z,17.40
2018-05-03T16:22:02.313Z,17.30
2018-05-03T16:24:29.772Z,17.30
2018-05-03T16:26:57.233Z,17.30
2018-05-03T16:29:24.689Z,17.30
2018-05-03T16:31:52.169Z,17.20
2018-05-03T16:34:19.638Z,17.10
2018-05-03T16:36:47.100Z,17.10
2018-05-03T16:39:14.601Z,17.10
2018-05-03T16:41:41.996Z,17.20
2018-05-03T16:44:09.553Z,17.10
2018-05-03T16:46:37.001Z,17.20
2018-05-03T16:49:04.509Z,17.10
2018-05-03T16:51:31.998Z,17.10
2018-05-03T16:53:59.532Z,17.10
2018-05-03T16:56:27.721Z,17.00
2018-05-03T16:58:55.170Z,17.00
2018-05-03T17:01:22.608Z,17.10
2018-05-03T17:03:50.066Z,17.00
2018-05-03T17:06:17.499Z,17.00
2018-05-03T17:08:45.726Z,17.10
2018-05-03T17:11:13.198Z,17.00
2018-05-03T17:13:40.658Z,17.00
2018-05-03T17:16:08.095Z,17.00
2018-05-03T17:18:35.545Z,17.00
2018-05-03T17:21:03.052Z,17.00
2018-05-03T17:23:30.494Z,16.90
2018-05-03T17:25:57.980Z,17.00
2018-05-03T17:28:25.446Z,17.00
2018-05-03T17:30:52.881Z,16.90
2018-05-03T17:33:20.333Z,16.90
2018-05-03T17:35:47.797Z,16.80
2018-05-03T17:38:15.225Z,16.90
2018-05-03T17:40:42.697Z,16.90
2018-05-03T17:43:10.898Z,16.80
2018-05-03T17:45:39.270Z,16.80
2018-05-03T17:48:07.484Z,16.80
2018-05-03T17:50:34.949Z,16.80
2018-05-03T17:53:02.412Z,16.90
2018-05-03T17:55:29.873Z,16.80
2018-05-03T17:57:57.337Z,16.80
2018-05-03T18:00:24.810Z,16.80
2018-05-03T18:02:52.261Z,16.80
2018-05-03T18:05:19.705Z,16.70
2018-05-03T18:07:47.197Z,16.70
2018-05-03T18:10:14.631Z,16.70
2018-05-03T18:12:42.105Z,16.70
2018-05-03T18:15:09.558Z,16.60
2018-05-03T18:17:37.046Z,16.60
2018-05-03T18:20:04.498Z,16.50
2018-05-03T18:22:31.955Z,16.50
2018-05-03T18:24:59.437Z,16.50
2018-05-03T18:27:26.901Z,16.50
2018-05-03T18:29:54.340Z,16.40
2018-05-03T18:32:21.792Z,16.40
2018-05-03T18:34:49.493Z,16.40
2018-05-03T18:37:16.955Z,16.40
2018-05-03T18:39:44.392Z,16.30
2018-05-03T18:42:11.869Z,16.30
2018-05-03T18:44:39.323Z,16.30
2018-05-03T18:47:06.793Z,16.30
2018-05-03T18:49:34.455Z,16.20
2018-05-03T18:52:01.947Z,16.20
2018-05-03T18:54:29.345Z,16.20
2018-05-03T18:56:57.546Z,16.10
2018-05-03T18:59:25.334Z,16.10
2018-05-03T19:01:52.897Z,16.10
2018-05-03T19:04:20.458Z,16.10
2018-05-03T19:06:47.925Z,16.10
2018-05-03T19:09:15.404Z,16.10
2018-05-03T19:11:42.948Z,16.00
2018-05-03T19:14:10.331Z,16.00
2018-05-03T19:16:37.862Z,16.00
2018-05-03T19:19:05.355Z,16.00
2018-05-03T19:21:32.814Z,16.00
2018-05-03T19:24:00.273Z,16.00
2018-05-03T19:26:27.730Z,16.00
2018-05-03T19:28:55.172Z,16.00
2018-05-03T19:31:22.629Z,16.00
2018-05-03T19:33:50.133Z,16.00
2018-05-03T19:36:17.659Z,15.90
2018-05-03T19:38:45.119Z,15.90
2018-05-03T19:41:12.605Z,15.90
2018-05-03T19:43:40.079Z,15.90
2018-05-03T19:46:07.505Z,15.90
2018-05-03T19:48:34.971Z,15.90
2018-05-03T19:51:02.406Z,15.80
2018-05-03T19:53:29.912Z,15.80
2018-05-03T19:55:57.375Z,15.80
2018-05-03T19:58:24.849Z,15.80
2018-05-03T20:00:52.284Z,15.80
2018-05-03T20:03:19.769Z,15.80
2018-05-03T20:05:47.206Z,15.70
2018-05-03T20:08:14.639Z,15.70
2018-05-03T20:10:42.969Z,15.70
2018-05-03T20:13:10.401Z,15.70
2018-05-03T20:15:38.082Z,15.70
2018-05-03T20:18:05.543Z,15.70
2018-05-03T20:20:32.987Z,15.60
2018-05-03T20:23:01.209Z,15.60
2018-05-03T20:25:28.677Z,15.60
2018-05-03T20:27:56.125Z,15.60
2018-05-03T20:30:23.571Z,15.60
2018-05-03T20:32:56.989Z,15.60
2018-05-03T20:35:24.557Z,15.50
2018-05-03T20:37:52.012Z,15.60
2018-05-03T20:40:19.465Z,15.50
2018-05-03T20:42:46.928Z,15.50
2018-05-03T20:45:14.386Z,15.50
2018-05-03T20:47:41.824Z,15.50
2018-05-03T20:50:10.127Z,15.50
2018-05-03T20:52:37.621Z,15.40
2018-05-03T20:55:05.177Z,15.50
2018-05-03T20:57:32.736Z,15.40
2018-05-03T21:00:00.194Z,15.40
2018-05-03T21:02:27.649Z,15.40
2018-05-03T21:04:55.097Z,15.40
2018-05-03T21:07:22.557Z,15.40
2018-05-03T21:09:50.026Z,15.40
2018-05-03T21:12:17.497Z,15.40
2018-05-03T21:14:44.958Z,15.40
2018-05-03T21:17:12.384Z,15.30
2018-05-03T21:19:40.611Z,15.30
2018-05-03T21:22:08.081Z,15.20
2018-05-03T21:24:35.541Z,15.20
2018-05-03T21:27:03.087Z,15.20
2018-05-03T21:29:30.517Z,15.20
2018-05-03T21:31:58.142Z,15.20
2018-05-03T21:34:25.598Z,15.20
2018-05-03T21:36:53.027Z,15.20
2018-05-03T21:39:20.526Z,15.20
2018-05-03T21:41:48.022Z,15.20
2018-05-03T21:44:15.444Z,15.20
2018-05-03T21:46:42.901Z,15.20
2018-05-03T21:49:10.342Z,15.10
2018-05-03T21:51:37.798Z,15.10
2018-05-03T21:54:05.997Z,15.10
2018-05-03T21:56:34.225Z,15.10
2018-05-03T21:59:01.665Z,15.10
2018-05-03T22:01:29.222Z,15.10
2018-05-03T22:03:56.728Z,15.10
2018-05-03T22:06:24.097Z,14.90
2018-05-03T22:08:52.435Z,15.00
2018-05-03T22:11:19.894Z,14.90
2018-05-03T22:13:47.384Z,15.00
2018-05-03T22:16:14.816Z,14.90
2018-05-03T22:18:42.259Z,14.90
2018-05-03T22:21:09.784Z,15.00
2018-05-03T22:23:37.246Z,15.00
2018-05-03T22:26:05.001Z,14.90
2018-05-03T22:28:32.465Z,14.90
2018-05-03T22:31:00.208Z,14.90
2018-05-03T22:33:27.752Z,14.90
2018-05-03T22:35:55.230Z,14.90
2018-05-03T22:38:22.698Z,14.90
2018-05-03T22:40:50.230Z,14.80
2018-05-03T22:43:17.610Z,14.80
2018-05-03T22:45:45.052Z,14.80
2018-05-03T22:48:12.520Z,14.80
2018-05-03T22:50:39.990Z,14.90
2018-05-03T22:53:08.169Z,14.90
2018-05-03T22:55:35.612Z,14.80
2018-05-03T22:58:03.831Z,14.90
2018-05-03T23:00:31.393Z,14.80
2018-05-03T23:02:58.857Z,14.80
2018-05-03T23:05:26.318Z,14.80
2018-05-03T23:07:53.755Z,14.80
2018-05-03T23:10:21.210Z,14.80
2018-05-03T23:12:48.640Z,14.80
2018-05-03T23:15:16.878Z,14.70
2018-05-03T23:17:44.327Z,14.70
2018-05-03T23:20:11.781Z,14.80
2018-05-03T23:22:39.274Z,14.80
2018-05-03T23:25:06.730Z,14.70
2018-05-03T23:27:34.180Z,14.80
2018-05-03T23:30:01.637Z,14.70
2018-05-03T23:32:29.122Z,14.70
2018-05-03T23:34:56.577Z,14.70
2018-05-03T23:37:24.033Z,14.70
2018-05-03T23:39:51.509Z,14.70
2018-05-03T23:42:18.965Z,14.70
2018-05-03T23:44:46.549Z,14.70
2018-05-03T23:47:13.997Z,14.60
2018-05-03T23:49:41.463Z,14.60
2018-05-03T23:52:09.053Z,14.60
2018-05-03T23:54:36.491Z,14.60
2018-05-03T23:57:03.929Z,14.60
2018-05-03T23:59:31.421Z,14.60
